createdAt,value
2019-04-29T00:01:19.018Z,11.70
2019-04-29T00:03:47.653Z,11.70
2019-04-29T00:06:16.347Z,11.69
2019-04-29T00:08:45.091Z,11.73
2019-04-29T00:11:13.808Z,11.78
2019-04-29T00:13:43.249Z,11.71
2019-04-29T00:16:31.998Z,11.60
2019-04-29T00:19:18.573Z,11.60
2019-04-29T00:21:47.345Z,11.68
2019-04-29T00:24:16.264Z,11.69
2019-04-29T00:26:44.837Z,11.66
2019-04-29T00:29:13.464Z,11.66
2019-04-29T00:31:42.163Z,11.65
2019-04-29T00:34:10.912Z,11.56
2019-04-29T00:36:50.199Z,11.60
2019-04-29T00:39:23.501Z,11.51
2019-04-29T00:42:10.325Z,11.59
2019-04-29T00:44:38.986Z,11.49
2019-04-29T00:47:07.689Z,11.53
2019-04-29T00:49:36.312Z,11.54
2019-04-29T00:52:05.045Z,11.53
2019-04-29T00:54:35.305Z,11.60
2019-04-29T00:57:04.034Z,11.59
2019-04-29T00:59:32.583Z,11.62
2019-04-29T01:02:01.276Z,11.65
2019-04-29T01:04:29.926Z,11.69
2019-04-29T01:06:58.488Z,11.65
2019-04-29T01:09:28.229Z,11.70
2019-04-29T01:11:56.852Z,11.63
2019-04-29T01:14:25.488Z,11.57
2019-04-29T01:16:54.187Z,11.58
2019-04-29T01:19:23.256Z,11.58
2019-04-29T01:21:51.927Z,11.61
2019-04-29T01:24:20.555Z,11.61
2019-04-29T01:26:56.817Z,11.68
2019-04-29T01:29:27.057Z,11.74
2019-04-29T01:31:56.054Z,11.81
2019-04-29T01:34:35.361Z,11.89
2019-04-29T01:37:04.171Z,11.94
2019-04-29T01:39:40.094Z,11.97
2019-04-29T01:42:16.133Z,12.02
2019-04-29T01:44:44.776Z,12.09
2019-04-29T01:47:13.362Z,12.04
2019-04-29T01:49:42.026Z,12.04
2019-04-29T01:52:10.648Z,12.08
2019-04-29T01:54:39.266Z,12.07
2019-04-29T01:57:07.761Z,12.13
2019-04-29T01:59:36.389Z,12.08
2019-04-29T02:02:05.391Z,12.10
2019-04-29T02:04:34.025Z,12.00
2019-04-29T02:07:02.661Z,12.04
2019-04-29T02:09:38.921Z,11.88
2019-04-29T02:12:07.591Z,11.79
2019-04-29T02:14:36.184Z,11.81
2019-04-29T02:17:04.981Z,11.75
2019-04-29T02:19:33.550Z,11.75
2019-04-29T02:22:09.504Z,11.68
2019-04-29T02:24:45.524Z,11.69
2019-04-29T02:27:14.075Z,11.58
2019-04-29T02:29:42.680Z,11.64
2019-04-29T02:32:11.309Z,11.65
2019-04-29T02:34:39.938Z,11.61
2019-04-29T02:37:10.281Z,11.65
2019-04-29T02:39:46.375Z,11.70
2019-04-29T02:42:33.111Z,11.82
2019-04-29T02:45:03.376Z,11.79
2019-04-29T02:47:32.058Z,11.74
2019-04-29T02:50:00.708Z,11.70
2019-04-29T02:52:29.209Z,11.58
2019-04-29T02:54:59.487Z,11.48
2019-04-29T02:57:29.764Z,11.51
2019-04-29T03:00:00.042Z,11.43
2019-04-29T03:02:30.300Z,11.45
2019-04-29T03:05:09.601Z,11.40
2019-04-29T03:07:38.275Z,11.38
2019-04-29T03:10:07.795Z,11.38
2019-04-29T03:12:36.485Z,11.39
2019-04-29T03:15:06.902Z,11.30
2019-04-29T03:17:35.488Z,11.27
2019-04-29T03:20:25.090Z,11.30
2019-04-29T03:22:55.704Z,11.22
2019-04-29T03:25:24.269Z,11.11
2019-04-29T03:27:52.906Z,11.11
2019-04-29T03:30:21.545Z,11.10
2019-04-29T03:32:50.184Z,11.13
2019-04-29T03:35:18.849Z,10.97
2019-04-29T03:37:47.437Z,11.00
2019-04-29T03:40:16.180Z,11.05
2019-04-29T03:42:44.816Z,11.05
2019-04-29T03:45:13.552Z,11.08
2019-04-29T03:47:42.181Z,11.15
2019-04-29T03:50:10.907Z,11.19
2019-04-29T03:52:39.574Z,11.26
2019-04-29T03:55:08.211Z,11.36
2019-04-29T03:57:37.753Z,11.36
2019-04-29T04:00:13.009Z,11.38
2019-04-29T04:02:46.331Z,11.44
2019-04-29T04:05:16.599Z,11.55
2019-04-29T04:07:49.867Z,11.57
2019-04-29T04:10:18.618Z,11.68
2019-04-29T04:12:47.299Z,11.83
2019-04-29T04:15:15.993Z,11.79
2019-04-29T04:18:02.655Z,11.82
2019-04-29T04:20:31.363Z,11.88
2019-04-29T04:22:59.993Z,12.03
2019-04-29T04:25:28.682Z,12.04
2019-04-29T04:27:57.325Z,12.18
2019-04-29T04:30:26.029Z,12.20
2019-04-29T04:32:54.666Z,12.30
2019-04-29T04:35:23.298Z,12.36
2019-04-29T04:37:51.982Z,12.51
2019-04-29T04:40:22.335Z,12.59
2019-04-29T04:42:51.019Z,12.61
2019-04-29T04:45:19.675Z,12.73
2019-04-29T04:47:48.287Z,12.77
2019-04-29T04:50:17.146Z,12.94
2019-04-29T04:52:45.787Z,13.06
2019-04-29T04:55:14.475Z,13.11
2019-04-29T04:57:43.124Z,13.14
2019-04-29T05:00:19.973Z,13.16
2019-04-29T05:02:47.257Z,13.25
2019-04-29T05:05:15.890Z,13.30
2019-04-29T05:07:44.522Z,13.49
2019-04-29T05:10:13.199Z,13.60
2019-04-29T05:12:41.907Z,13.69
2019-04-29T05:15:10.667Z,13.82
2019-04-29T05:17:39.307Z,13.92
2019-04-29T05:20:08.378Z,14.08
2019-04-29T05:22:37.054Z,14.30
2019-04-29T05:25:07.331Z,14.58
2019-04-29T05:27:36.034Z,14.82
2019-04-29T05:30:05.508Z,15.04
2019-04-29T05:32:34.071Z,15.22
2019-04-29T05:35:04.362Z,15.32
2019-04-29T05:37:37.368Z,15.37
2019-04-29T05:40:07.015Z,15.37
2019-04-29T05:42:35.648Z,15.62
2019-04-29T05:45:17.963Z,15.98
2019-04-29T05:47:52.256Z,16.33
2019-04-29T05:50:23.240Z,16.56
2019-04-29T05:53:02.375Z,16.69
2019-04-29T05:55:31.013Z,17.00
2019-04-29T05:58:11.372Z,17.49
2019-04-29T06:00:41.887Z,17.84
2019-04-29T06:03:10.505Z,18.09
2019-04-29T06:05:39.237Z,18.25
2019-04-29T06:08:07.871Z,18.63
2019-04-29T06:10:36.491Z,18.97
2019-04-29T06:13:05.238Z,19.25
2019-04-29T06:15:33.874Z,19.46
2019-04-29T06:18:02.546Z,19.55
2019-04-29T06:20:31.204Z,19.70
2019-04-29T06:22:59.767Z,19.74
2019-04-29T06:25:28.445Z,19.97
2019-04-29T06:27:57.039Z,20.05
2019-04-29T06:30:25.703Z,20.16
2019-04-29T06:32:54.332Z,20.28
2019-04-29T06:35:22.956Z,20.23
2019-04-29T06:37:51.667Z,20.39
2019-04-29T06:40:20.330Z,20.74
2019-04-29T06:42:49.493Z,21.09
2019-04-29T06:45:19.417Z,21.44
2019-04-29T06:47:48.139Z,21.52
2019-04-29T06:50:17.265Z,21.67
2019-04-29T06:52:45.936Z,21.94
2019-04-29T06:55:14.778Z,22.36
2019-04-29T06:57:43.419Z,23.01
2019-04-29T07:00:12.348Z,23.53
2019-04-29T07:02:40.911Z,24.18
2019-04-29T07:05:09.674Z,24.54
2019-04-29T07:07:38.311Z,24.69
2019-04-29T07:10:07.340Z,24.90
2019-04-29T07:12:36.434Z,24.74
2019-04-29T07:15:07.561Z,24.58
2019-04-29T07:17:36.486Z,24.36
2019-04-29T07:20:06.822Z,24.19
2019-04-29T07:22:35.458Z,24.56
2019-04-29T07:25:05.005Z,24.78
2019-04-29T07:27:34.836Z,25.36
2019-04-29T07:30:08.020Z,25.34
2019-04-29T07:32:36.754Z,26.16
2019-04-29T07:35:09.770Z,27.28
2019-04-29T07:37:38.776Z,28.50
2019-04-29T07:40:09.387Z,29.79
2019-04-29T07:42:38.226Z,31.01
2019-04-29T07:45:28.278Z,31.11
2019-04-29T07:47:57.141Z,31.76
2019-04-29T07:50:26.832Z,33.69
2019-04-29T07:52:56.311Z,33.03
2019-04-29T07:55:26.080Z,33.55
2019-04-29T07:57:55.296Z,33.32
2019-04-29T08:00:36.868Z,33.28
2019-04-29T08:03:07.869Z,32.24
2019-04-29T08:05:36.595Z,32.90
2019-04-29T08:08:05.961Z,32.86
2019-04-29T08:10:34.624Z,33.12
2019-04-29T08:13:03.556Z,33.28
2019-04-29T08:15:32.331Z,33.38
2019-04-29T08:18:06.809Z,32.65
2019-04-29T08:20:31.487Z,33.92
2019-04-29T08:23:02.574Z,34.37
2019-04-29T08:25:30.481Z,35.03
2019-04-29T08:27:59.075Z,34.46
2019-04-29T08:30:27.748Z,34.54
2019-04-29T08:32:56.418Z,35.15
2019-04-29T08:35:25.064Z,36.90
2019-04-29T08:37:53.685Z,38.81
2019-04-29T08:40:22.362Z,39.31
2019-04-29T08:42:52.642Z,41.26
2019-04-29T08:45:25.659Z,43.04
2019-04-29T08:47:54.488Z,44.38
2019-04-29T08:50:23.251Z,46.52
2019-04-29T08:52:51.886Z,48.01
2019-04-29T08:55:20.545Z,45.46
2019-04-29T08:57:49.173Z,46.46
2019-04-29T09:00:18.039Z,45.86
2019-04-29T09:02:47.785Z,46.63
2019-04-29T09:05:17.101Z,46.31
2019-04-29T09:07:45.717Z,47.73
2019-04-29T09:10:14.856Z,49.11
2019-04-29T09:12:43.495Z,50.04
2019-04-29T09:15:12.620Z,50.25
2019-04-29T09:17:41.318Z,50.30
2019-04-29T09:20:10.805Z,51.17
2019-04-29T09:22:41.082Z,49.98
2019-04-29T09:25:11.542Z,47.69
2019-04-29T09:27:44.999Z,46.71
2019-04-29T09:30:15.046Z,45.57
2019-04-29T09:32:43.712Z,47.48
2019-04-29T09:35:12.727Z,48.23
2019-04-29T09:37:41.358Z,50.98
2019-04-29T09:40:11.837Z,47.50
2019-04-29T09:42:45.561Z,45.76
2019-04-29T09:45:32.739Z,45.23
2019-04-29T09:48:01.466Z,45.75
2019-04-29T09:50:34.188Z,48.41
2019-04-29T09:53:00.605Z,48.22
2019-04-29T09:55:29.307Z,51.76
2019-04-29T09:57:57.870Z,51.67
2019-04-29T10:00:28.142Z,54.59
2019-04-29T10:03:04.164Z,52.03
2019-04-29T10:05:40.155Z,51.54
2019-04-29T10:08:08.784Z,53.16
2019-04-29T10:10:37.519Z,51.27
2019-04-29T10:13:06.438Z,50.32
2019-04-29T10:15:55.840Z,50.00
2019-04-29T10:18:29.878Z,49.92
2019-04-29T10:21:00.216Z,51.39
2019-04-29T10:23:28.898Z,52.99
2019-04-29T10:25:57.525Z,54.34
2019-04-29T10:28:26.266Z,55.17
2019-04-29T10:30:55.120Z,55.43
2019-04-29T10:33:24.525Z,57.98
2019-04-29T10:35:53.191Z,58.77
2019-04-29T10:38:21.817Z,55.01
2019-04-29T10:41:10.265Z,54.00
2019-04-29T10:43:57.042Z,49.26
2019-04-29T10:46:36.196Z,45.75
2019-04-29T10:49:06.565Z,42.78
2019-04-29T10:51:35.262Z,43.25
2019-04-29T10:54:04.092Z,44.62
2019-04-29T10:56:35.377Z,42.83
2019-04-29T10:59:04.610Z,39.61
2019-04-29T11:02:01.716Z,39.54
2019-04-29T11:04:35.637Z,41.99
2019-04-29T11:07:13.783Z,44.15
2019-04-29T11:09:36.674Z,44.11
2019-04-29T11:12:08.837Z,42.65
2019-04-29T11:14:39.226Z,40.49
2019-04-29T11:17:16.006Z,39.02
2019-04-29T11:19:39.917Z,37.15
2019-04-29T11:22:11.322Z,34.91
2019-04-29T11:24:56.796Z,33.59
2019-04-29T11:27:27.265Z,32.56
2019-04-29T11:29:58.596Z,31.59
2019-04-29T11:32:29.178Z,30.76
2019-04-29T11:35:00.122Z,29.76
2019-04-29T11:37:28.849Z,29.44
2019-04-29T11:39:57.479Z,29.24
2019-04-29T11:42:26.291Z,28.63
2019-04-29T11:44:57.175Z,27.87
2019-04-29T11:47:26.338Z,27.54
2019-04-29T11:49:56.636Z,26.76
2019-04-29T11:52:28.182Z,26.50
2019-04-29T11:54:55.721Z,26.36
2019-04-29T11:57:40.715Z,25.91
2019-04-29T12:00:03.666Z,25.91
2019-04-29T12:02:45.545Z,25.98
2019-04-29T12:05:08.629Z,26.00
2019-04-29T12:07:37.442Z,26.00
2019-04-29T12:10:07.966Z,25.84
2019-04-29T12:12:36.678Z,25.37
2019-04-29T12:15:24.113Z,25.07
2019-04-29T12:18:00.318Z,24.90
2019-04-29T12:20:30.607Z,24.48
2019-04-29T12:22:59.268Z,24.47
2019-04-29T12:25:29.339Z,24.46
2019-04-29T12:28:01.585Z,24.36
2019-04-29T12:30:34.681Z,24.43
2019-04-29T12:33:03.190Z,24.43
2019-04-29T12:35:33.541Z,24.42
2019-04-29T12:38:20.078Z,24.49
2019-04-29T12:41:02.644Z,24.57
2019-04-29T12:43:53.564Z,24.32
2019-04-29T12:46:27.128Z,24.07
2019-04-29T12:48:55.775Z,23.77
2019-04-29T12:51:24.405Z,23.73
2019-04-29T12:53:53.068Z,23.59
2019-04-29T12:56:29.049Z,23.63
2019-04-29T12:58:59.675Z,23.82
2019-04-29T13:01:50.876Z,24.09
2019-04-29T13:04:28.138Z,24.24
2019-04-29T13:06:58.642Z,24.25
2019-04-29T13:09:45.865Z,24.20
2019-04-29T13:12:19.736Z,24.20
2019-04-29T13:15:03.446Z,24.20
2019-04-29T13:17:43.866Z,23.89
2019-04-29T13:20:13.178Z,24.00
2019-04-29T13:22:41.975Z,24.03
2019-04-29T13:25:10.803Z,24.05
2019-04-29T13:27:39.498Z,23.97
2019-04-29T13:30:15.969Z,23.94
2019-04-29T13:32:42.115Z,23.90
2019-04-29T13:35:12.769Z,23.95
2019-04-29T13:37:41.512Z,23.96
2019-04-29T13:40:10.701Z,23.81
2019-04-29T13:42:39.324Z,23.81
2019-04-29T13:45:13.526Z,23.77
2019-04-29T13:47:50.193Z,23.39
2019-04-29T13:50:38.941Z,23.07
2019-04-29T13:52:57.004Z,23.09
2019-04-29T13:55:47.060Z,23.08
2019-04-29T13:57:56.077Z,22.99
2019-04-29T14:00:29.251Z,22.90
2019-04-29T14:03:02.329Z,22.90
2019-04-29T14:05:32.505Z,22.93
2019-04-29T14:08:03.893Z,22.75
2019-04-29T14:10:32.322Z,22.80
2019-04-29T14:13:11.701Z,22.75
2019-04-29T14:15:33.849Z,22.69
2019-04-29T14:18:01.810Z,22.66
2019-04-29T14:20:30.445Z,22.58
2019-04-29T14:22:59.078Z,22.58
2019-04-29T14:25:27.715Z,22.72
2019-04-29T14:27:56.348Z,22.80
2019-04-29T14:30:37.874Z,22.79
2019-04-29T14:32:57.052Z,22.71
2019-04-29T14:35:43.742Z,22.70
2019-04-29T14:38:13.071Z,22.70
2019-04-29T14:40:42.762Z,22.65
2019-04-29T14:43:30.856Z,22.67
2019-04-29T14:45:57.689Z,22.72
2019-04-29T14:48:42.239Z,22.79
2019-04-29T14:51:04.465Z,22.96
2019-04-29T14:53:33.109Z,22.95
2019-04-29T14:56:01.744Z,22.95
2019-04-29T14:58:30.410Z,22.86
2019-04-29T15:01:15.729Z,22.80
2019-04-29T15:03:51.650Z,22.72
2019-04-29T15:06:20.324Z,22.74
2019-04-29T15:08:49.006Z,22.79
2019-04-29T15:11:31.008Z,22.75
2019-04-29T15:13:51.119Z,22.83
2019-04-29T15:16:38.141Z,22.86
2019-04-29T15:19:24.854Z,22.88
2019-04-29T15:21:55.191Z,22.74
2019-04-29T15:24:27.383Z,22.78
2019-04-29T15:26:54.344Z,22.86
2019-04-29T15:29:23.194Z,22.88
2019-04-29T15:31:51.926Z,22.97
2019-04-29T15:34:20.566Z,23.11
2019-04-29T15:36:49.197Z,23.20
2019-04-29T15:39:18.117Z,23.22
2019-04-29T15:41:47.077Z,23.13
2019-04-29T15:44:20.250Z,23.06
2019-04-29T15:46:46.962Z,23.06
2019-04-29T15:49:15.874Z,22.98
2019-04-29T15:51:49.212Z,22.90
2019-04-29T15:54:16.143Z,22.91
2019-04-29T15:56:45.106Z,22.93
2019-04-29T15:59:13.797Z,22.89
2019-04-29T16:01:42.887Z,22.85
2019-04-29T16:04:21.000Z,22.88
2019-04-29T16:07:08.019Z,22.93
2019-04-29T16:09:51.115Z,23.00
2019-04-29T16:12:15.507Z,22.99
2019-04-29T16:14:49.055Z,22.96
2019-04-29T16:17:20.492Z,22.85
2019-04-29T16:19:47.140Z,22.75
2019-04-29T16:22:19.763Z,22.73
2019-04-29T16:24:46.228Z,22.68
2019-04-29T16:27:14.877Z,22.64
2019-04-29T16:29:46.221Z,22.59
2019-04-29T16:32:15.541Z,22.46
2019-04-29T16:34:46.884Z,22.41
2019-04-29T16:37:19.267Z,22.25
2019-04-29T16:39:44.774Z,22.18
2019-04-29T16:42:15.157Z,22.08
2019-04-29T16:44:43.794Z,21.94
2019-04-29T16:47:13.799Z,21.78
2019-04-29T16:49:43.246Z,21.66
2019-04-29T16:52:11.991Z,21.52
2019-04-29T16:54:40.740Z,21.39
2019-04-29T16:57:09.491Z,21.24
2019-04-29T16:59:38.134Z,21.14
2019-04-29T17:02:06.852Z,20.97
2019-04-29T17:04:35.478Z,20.94
2019-04-29T17:07:13.695Z,20.83
2019-04-29T17:09:53.202Z,20.65
2019-04-29T17:12:22.951Z,20.60
2019-04-29T17:15:03.911Z,20.38
2019-04-29T17:17:28.884Z,20.35
2019-04-29T17:19:54.050Z,20.24
2019-04-29T17:22:26.082Z,20.12
2019-04-29T17:24:53.289Z,20.13
2019-04-29T17:27:41.954Z,20.11
2019-04-29T17:30:28.819Z,20.05
2019-04-29T17:33:02.901Z,19.97
2019-04-29T17:35:33.882Z,19.90
2019-04-29T17:38:02.526Z,19.82
2019-04-29T17:40:31.427Z,19.75
2019-04-29T17:43:04.818Z,19.73
2019-04-29T17:45:33.666Z,19.67
2019-04-29T17:48:09.710Z,19.63
2019-04-29T17:50:46.288Z,19.62
2019-04-29T17:53:21.691Z,19.55
2019-04-29T17:55:55.453Z,19.54
2019-04-29T17:58:35.872Z,19.48
2019-04-29T18:01:24.311Z,19.40
2019-04-29T18:03:57.219Z,19.41
2019-04-29T18:06:28.372Z,19.36
2019-04-29T18:09:01.628Z,19.29
2019-04-29T18:11:30.287Z,19.31
2019-04-29T18:13:58.910Z,19.31
2019-04-29T18:16:32.237Z,19.29
2019-04-29T18:19:18.660Z,19.24
2019-04-29T18:21:58.087Z,19.08
2019-04-29T18:24:37.500Z,18.86
2019-04-29T18:27:19.894Z,18.78
2019-04-29T18:29:48.597Z,18.65
2019-04-29T18:32:17.389Z,18.53
2019-04-29T18:34:46.033Z,18.46
2019-04-29T18:37:16.490Z,18.36
2019-04-29T18:39:45.084Z,18.27
2019-04-29T18:42:13.818Z,18.21
2019-04-29T18:44:55.143Z,18.14
2019-04-29T18:47:21.979Z,18.11
2019-04-29T18:49:43.259Z,18.07
2019-04-29T18:52:23.010Z,18.03
2019-04-29T18:54:42.396Z,17.95
2019-04-29T18:57:11.042Z,17.91
2019-04-29T18:59:42.022Z,17.89
2019-04-29T19:02:10.104Z,17.84
2019-04-29T19:04:40.420Z,17.83
2019-04-29T19:07:09.131Z,17.75
2019-04-29T19:09:39.640Z,17.74
2019-04-29T19:12:08.426Z,17.72
2019-04-29T19:14:37.059Z,17.68
2019-04-29T19:17:05.705Z,17.62
2019-04-29T19:19:35.914Z,17.57
2019-04-29T19:22:08.961Z,17.50
2019-04-29T19:24:36.450Z,17.47
2019-04-29T19:27:09.372Z,17.40
2019-04-29T19:29:38.798Z,17.35
2019-04-29T19:32:06.562Z,17.38
2019-04-29T19:34:43.030Z,17.29
2019-04-29T19:37:05.647Z,17.23
2019-04-29T19:39:34.985Z,17.20
2019-04-29T19:42:05.679Z,17.19
2019-04-29T19:44:36.697Z,17.10
2019-04-29T19:47:04.831Z,17.01
2019-04-29T19:49:33.475Z,17.00
2019-04-29T19:52:02.227Z,16.95
2019-04-29T19:54:30.797Z,16.95
2019-04-29T19:57:03.413Z,16.90
2019-04-29T19:59:30.512Z,16.88
2019-04-29T20:02:05.183Z,16.87
2019-04-29T20:04:32.119Z,16.88
2019-04-29T20:07:06.365Z,16.85
2019-04-29T20:09:32.595Z,16.81
2019-04-29T20:12:11.398Z,16.78
2019-04-29T20:14:33.891Z,16.82
2019-04-29T20:17:12.823Z,16.79
2019-04-29T20:19:39.474Z,16.76
2019-04-29T20:22:09.443Z,16.73
2019-04-29T20:24:38.712Z,16.71
2019-04-29T20:27:07.757Z,16.70
2019-04-29T20:29:38.741Z,16.68
2019-04-29T20:32:07.881Z,16.71
2019-04-29T20:34:37.084Z,16.73
2019-04-29T20:37:10.345Z,16.68
2019-04-29T20:39:36.552Z,16.64
2019-04-29T20:42:10.241Z,16.66
2019-04-29T20:44:36.946Z,16.63
2019-04-29T20:47:19.081Z,16.64
2019-04-29T20:49:39.527Z,16.58
2019-04-29T20:52:13.479Z,16.53
2019-04-29T20:54:41.535Z,16.45
2019-04-29T20:57:17.605Z,16.43
2019-04-29T20:59:42.091Z,16.45
2019-04-29T21:02:13.040Z,16.42
2019-04-29T21:04:46.263Z,16.41
2019-04-29T21:07:11.870Z,16.31
2019-04-29T21:09:40.496Z,16.38
2019-04-29T21:12:10.762Z,16.31
2019-04-29T21:14:47.059Z,16.28
2019-04-29T21:17:28.294Z,16.25
2019-04-29T21:19:46.058Z,16.30
2019-04-29T21:22:22.260Z,16.24
2019-04-29T21:24:45.362Z,16.19
2019-04-29T21:27:15.993Z,16.16
2019-04-29T21:29:45.747Z,16.10
2019-04-29T21:32:15.605Z,16.04
2019-04-29T21:34:46.056Z,16.00
2019-04-29T21:37:16.338Z,15.98
2019-04-29T21:39:52.541Z,15.94
2019-04-29T21:45:15.525Z,15.84
2019-04-29T21:47:52.694Z,15.82
2019-04-29T21:50:16.396Z,15.72
2019-04-29T21:52:46.906Z,15.73
2019-04-29T21:55:16.105Z,15.71
2019-04-29T21:57:44.996Z,15.77
2019-04-29T22:00:19.735Z,15.74
2019-04-29T22:02:46.583Z,15.73
2019-04-29T22:05:18.336Z,15.74
2019-04-29T22:07:47.452Z,15.70
2019-04-29T22:10:19.936Z,15.68
2019-04-29T22:12:50.870Z,15.68
2019-04-29T22:15:29.883Z,15.65
2019-04-29T22:17:56.214Z,15.62
2019-04-29T22:20:18.733Z,15.65
2019-04-29T22:22:47.836Z,15.66
2019-04-29T22:25:16.568Z,15.62
2019-04-29T22:27:45.297Z,15.62
2019-04-29T22:30:18.485Z,15.63
2019-04-29T22:32:47.125Z,15.69
2019-04-29T22:35:16.654Z,15.64
2019-04-29T22:37:45.574Z,15.63
2019-04-29T22:40:15.475Z,15.60
2019-04-29T22:43:04.654Z,15.60
2019-04-29T22:45:29.556Z,15.59
2019-04-29T22:48:12.098Z,15.65
2019-04-29T22:50:28.381Z,15.61
2019-04-29T22:52:57.225Z,15.62
2019-04-29T22:55:26.022Z,15.61
2019-04-29T22:57:55.458Z,15.60
2019-04-29T23:00:32.543Z,15.61
2019-04-29T23:02:57.797Z,15.57
2019-04-29T23:05:28.061Z,15.54
2019-04-29T23:08:00.027Z,15.53
2019-04-29T23:10:28.039Z,15.48
2019-04-29T23:12:57.510Z,15.42
2019-04-29T23:15:26.467Z,15.35
2019-04-29T23:17:55.096Z,15.35
2019-04-29T23:20:28.988Z,15.34
2019-04-29T23:23:01.903Z,15.34
2019-04-29T23:25:32.043Z,15.35
2019-04-29T23:28:00.700Z,15.39
2019-04-29T23:30:29.331Z,15.43
2019-04-29T23:32:58.119Z,15.49
2019-04-29T23:35:26.819Z,15.53
2019-04-29T23:37:58.833Z,15.58
2019-04-29T23:40:25.745Z,15.67
2019-04-29T23:42:55.403Z,15.65
2019-04-29T23:45:25.277Z,15.62
2019-04-29T23:47:55.565Z,15.62
2019-04-29T23:50:25.731Z,15.63
2019-04-29T23:52:55.696Z,15.58
2019-04-29T23:55:27.392Z,15.63
2019-04-29T23:58:03.709Z,15.64
